createdAt,value
2019-03-12T00:02:46.719Z,4.0
2019-03-12T00:19:34.231Z,4.0
2019-03-12T00:36:21.611Z,4.0
2019-03-12T00:53:08.896Z,4.0
2019-03-12T01:09:56.127Z,3.9
2019-03-12T01:26:43.355Z,3.9
2019-03-12T01:43:30.455Z,3.9
2019-03-12T02:00:17.573Z,3.9
2019-03-12T02:17:04.661Z,3.9
2019-03-12T02:33:51.621Z,3.9
2019-03-12T02:50:38.524Z,3.9
2019-03-12T03:07:25.449Z,3.9
2019-03-12T03:24:12.305Z,3.9
2019-03-12T03:40:59.182Z,3.9
2019-03-12T03:57:45.968Z,3.8
2019-03-12T04:14:32.665Z,3.8
2019-03-12T04:31:19.217Z,3.8
2019-03-12T04:48:05.839Z,3.8
2019-03-12T05:04:52.286Z,3.8
2019-03-12T05:21:38.720Z,3.8
2019-03-12T05:38:25.258Z,3.8
2019-03-12T05:55:11.739Z,3.8
2019-03-12T06:11:58.325Z,3.8
2019-03-12T06:28:44.960Z,3.8
2019-03-12T06:45:31.572Z,3.8
2019-03-12T07:02:18.383Z,3.9
2019-03-12T07:19:04.683Z,4.1
2019-03-12T07:35:51.121Z,4.1
2019-03-12T07:52:37.716Z,4.2
2019-03-12T08:09:24.609Z,4.2
2019-03-12T08:26:10.486Z,4.3
2019-03-12T08:42:57.824Z,4.3
2019-03-12T08:59:45.156Z,4.4
2019-03-12T09:16:32.837Z,4.5
2019-03-12T09:33:19.917Z,4.5
2019-03-12T09:50:07.134Z,4.5
2019-03-12T10:06:54.795Z,4.5
2019-03-12T10:23:41.797Z,4.5
2019-03-12T10:40:29.333Z,4.5
2019-03-12T10:57:16.793Z,4.5
2019-03-12T11:14:04.460Z,4.5
2019-03-12T11:30:52.614Z,4.6
2019-03-12T11:47:40.254Z,4.6
2019-03-12T12:04:28.362Z,4.6
2019-03-12T12:21:16.753Z,4.5
2019-03-12T12:38:05.474Z,4.5
2019-03-12T12:54:53.889Z,4.5
2019-03-12T13:11:41.869Z,4.5
2019-03-12T13:28:30.207Z,4.6
2019-03-12T13:45:18.747Z,4.5
2019-03-12T14:02:07.452Z,4.5
2019-03-12T14:18:56.161Z,4.5
2019-03-12T14:35:51.524Z,4.5
2019-03-12T14:52:33.894Z,4.5
2019-03-12T15:09:22.857Z,4.5
2019-03-12T15:26:11.285Z,4.5
2019-03-12T15:42:59.814Z,4.4
2019-03-12T15:59:48.491Z,4.4
2019-03-12T16:16:37.150Z,4.4
2019-03-12T16:33:25.752Z,4.4
2019-03-12T16:50:14.369Z,4.3
2019-03-12T17:07:02.893Z,4.3
2019-03-12T17:23:51.564Z,4.3
2019-03-12T17:40:40.103Z,4.3
2019-03-12T17:57:28.465Z,4.2
2019-03-12T18:14:16.324Z,4.2
2019-03-12T18:31:03.980Z,4.2
2019-03-12T18:47:51.712Z,4.2
2019-03-12T19:04:39.315Z,4.2
2019-03-12T19:21:27.158Z,4.2
2019-03-12T19:38:14.951Z,4.2
2019-03-12T19:55:03.341Z,4.2
2019-03-12T20:11:50.514Z,4.2
2019-03-12T20:28:38.216Z,4.1
2019-03-12T20:45:25.940Z,4.1
2019-03-12T21:02:13.672Z,4.1
2019-03-12T21:19:01.213Z,4.1
2019-03-12T21:35:48.879Z,4.1
2019-03-12T21:52:36.541Z,4.1
2019-03-12T22:09:24.402Z,4.1
2019-03-12T22:26:12.012Z,4.1
2019-03-12T22:42:59.749Z,4.1
2019-03-12T22:59:47.445Z,4.1
2019-03-12T23:16:35.095Z,4.0
2019-03-12T23:33:22.803Z,4.0
2019-03-12T23:50:10.235Z,4.0
